createdAt,value
2023-05-18T00:00:14.367Z,15.96
2023-05-18T00:02:42.007Z,16.26
2023-05-18T00:05:10.536Z,15.85
2023-05-18T00:07:37.711Z,16.18
2023-05-18T00:10:05.025Z,16.17
2023-05-18T00:12:32.130Z,16.11
2023-05-18T00:14:59.228Z,16.19
2023-05-18T00:17:26.321Z,16.30
2023-05-18T00:19:53.440Z,16.03
2023-05-18T00:22:20.564Z,15.68
2023-05-18T00:24:48.587Z,15.85
2023-05-18T00:27:15.846Z,16.04
2023-05-18T00:29:42.865Z,15.29
2023-05-18T00:32:12.364Z,15.26
2023-05-18T00:34:39.390Z,15.32
2023-05-18T00:37:06.522Z,15.20
2023-05-18T00:39:33.591Z,15.25
2023-05-18T00:42:03.099Z,15.57
2023-05-18T00:44:30.207Z,15.89
2023-05-18T00:46:57.240Z,15.65
2023-05-18T00:49:24.303Z,15.85
2023-05-18T00:51:51.457Z,15.78
2023-05-18T00:54:19.513Z,15.80
2023-05-18T00:56:48.534Z,16.13
2023-05-18T00:59:16.613Z,15.78
2023-05-18T01:01:46.703Z,15.93
2023-05-18T01:04:16.477Z,15.84
2023-05-18T01:06:43.940Z,15.93
2023-05-18T01:09:12.526Z,16.32
2023-05-18T01:11:58.236Z,16.29
2023-05-18T01:14:34.410Z,16.21
2023-05-18T01:17:28.916Z,16.19
2023-05-18T01:20:26.906Z,16.17
2023-05-18T01:23:15.300Z,16.02
2023-05-18T01:25:50.552Z,16.13
2023-05-18T01:28:20.091Z,16.21
2023-05-18T01:30:47.976Z,16.02
2023-05-18T01:33:15.270Z,16.18
2023-05-18T01:35:48.214Z,16.19
2023-05-18T01:38:22.749Z,16.31
2023-05-18T01:41:08.457Z,15.91
2023-05-18T01:43:36.718Z,16.19
2023-05-18T01:46:19.164Z,16.09
2023-05-18T01:48:52.321Z,16.13
2023-05-18T01:51:21.642Z,16.35
2023-05-18T01:54:00.832Z,16.26
2023-05-18T01:56:28.178Z,16.08
2023-05-18T01:58:55.562Z,15.76
2023-05-18T02:01:24.211Z,16.20
2023-05-18T02:03:51.848Z,16.12
2023-05-18T02:06:19.067Z,16.21
2023-05-18T02:08:46.461Z,16.13
2023-05-18T02:11:13.570Z,16.13
2023-05-18T02:13:41.152Z,16.24
2023-05-18T02:16:08.724Z,15.90
2023-05-18T02:18:36.576Z,16.06
2023-05-18T02:21:04.407Z,16.09
2023-05-18T02:23:32.193Z,16.38
2023-05-18T02:25:59.217Z,16.51
2023-05-18T02:28:26.307Z,16.74
2023-05-18T02:30:53.382Z,16.68
2023-05-18T02:33:26.590Z,16.35
2023-05-18T02:35:54.050Z,16.54
2023-05-18T02:38:21.576Z,16.62
2023-05-18T02:40:48.715Z,16.85
2023-05-18T02:43:17.197Z,16.84
2023-05-18T02:45:45.396Z,16.68
2023-05-18T02:48:12.546Z,16.93
2023-05-18T02:50:39.844Z,16.78
2023-05-18T02:53:07.149Z,16.70
2023-05-18T02:55:34.276Z,16.72
2023-05-18T02:58:15.152Z,16.57
2023-05-18T03:01:12.536Z,16.81
2023-05-18T03:03:47.498Z,16.94
2023-05-18T03:06:16.221Z,17.12
2023-05-18T03:08:44.476Z,16.88
2023-05-18T03:11:13.044Z,16.92
2023-05-18T03:13:40.136Z,17.15
2023-05-18T03:16:07.479Z,16.80
2023-05-18T03:18:35.168Z,16.99
2023-05-18T03:21:03.577Z,16.79
2023-05-18T03:23:30.631Z,16.77
2023-05-18T03:25:57.946Z,16.57
2023-05-18T03:28:28.618Z,16.44
2023-05-18T03:30:55.998Z,16.37
2023-05-18T03:33:23.377Z,16.69
2023-05-18T03:35:52.467Z,16.90
2023-05-18T03:38:19.736Z,17.28
2023-05-18T03:40:54.021Z,17.10
2023-05-18T03:43:21.238Z,16.81
2023-05-18T03:45:48.551Z,16.57
2023-05-18T03:48:16.039Z,16.55
2023-05-18T03:50:43.962Z,16.54
2023-05-18T03:53:11.627Z,16.56
2023-05-18T03:55:38.785Z,16.38
2023-05-18T03:58:05.954Z,16.39
2023-05-18T04:00:33.061Z,16.89
2023-05-18T04:03:00.866Z,17.15
2023-05-18T04:05:28.734Z,16.97
2023-05-18T04:07:57.777Z,17.06
2023-05-18T04:10:24.975Z,16.74
2023-05-18T04:12:52.110Z,17.15
2023-05-18T04:15:19.182Z,17.44
2023-05-18T04:17:46.369Z,17.43
2023-05-18T04:20:14.890Z,17.30
2023-05-18T04:22:48.666Z,17.15
2023-05-18T04:25:17.506Z,17.40
2023-05-18T04:27:50.593Z,17.71
2023-05-18T04:30:19.141Z,17.67
2023-05-18T04:32:46.394Z,17.30
2023-05-18T04:35:13.557Z,17.01
2023-05-18T04:37:41.259Z,17.34
2023-05-18T04:40:17.255Z,17.50
2023-05-18T04:42:48.441Z,17.52
2023-05-18T04:45:23.157Z,17.33
2023-05-18T04:47:54.640Z,17.73
2023-05-18T04:50:24.027Z,17.54
2023-05-18T04:52:52.816Z,17.05
2023-05-18T04:55:29.229Z,16.98
2023-05-18T04:58:10.993Z,16.94
2023-05-18T05:00:38.704Z,17.48
2023-05-18T05:03:06.523Z,17.74
2023-05-18T05:05:34.984Z,17.82
2023-05-18T05:08:02.207Z,17.71
2023-05-18T05:10:30.172Z,18.34
2023-05-18T05:12:57.281Z,18.38
2023-05-18T05:15:25.060Z,18.49
2023-05-18T05:17:52.490Z,18.09
2023-05-18T05:20:19.925Z,17.72
2023-05-18T05:22:47.856Z,17.87
2023-05-18T05:25:17.873Z,17.39
2023-05-18T05:27:45.166Z,17.55
2023-05-18T05:30:13.177Z,17.63
2023-05-18T05:32:42.052Z,17.58
2023-05-18T05:35:09.573Z,16.88
2023-05-18T05:37:37.374Z,16.66
2023-05-18T05:40:06.813Z,17.15
2023-05-18T05:42:39.426Z,17.50
2023-05-18T05:45:08.702Z,17.96
2023-05-18T05:47:43.138Z,18.38
2023-05-18T05:50:10.984Z,18.53
2023-05-18T05:52:38.478Z,18.35
2023-05-18T05:55:06.781Z,17.93
2023-05-18T05:57:33.925Z,18.35
2023-05-18T06:00:01.787Z,18.41
2023-05-18T06:02:32.248Z,18.16
2023-05-18T06:04:59.713Z,17.42
2023-05-18T06:07:27.462Z,17.93
2023-05-18T06:09:54.918Z,17.88
2023-05-18T06:12:22.055Z,18.07
2023-05-18T06:14:49.408Z,17.92
2023-05-18T06:17:16.575Z,18.22
2023-05-18T06:19:44.818Z,18.64
2023-05-18T06:22:12.025Z,18.96
2023-05-18T06:24:46.739Z,18.84
2023-05-18T06:27:36.956Z,18.88
2023-05-18T06:30:20.539Z,18.64
2023-05-18T06:33:10.318Z,18.86
2023-05-18T06:35:37.674Z,18.88
2023-05-18T06:38:05.048Z,19.30
2023-05-18T06:40:32.200Z,18.96
2023-05-18T06:42:59.401Z,19.01
2023-05-18T06:45:36.103Z,18.49
2023-05-18T06:48:19.087Z,18.63
2023-05-18T06:50:46.278Z,18.69
2023-05-18T06:53:13.928Z,18.71
2023-05-18T06:55:41.082Z,19.62
2023-05-18T06:58:08.145Z,19.81
2023-05-18T07:00:35.345Z,20.10
2023-05-18T07:03:03.767Z,19.98
2023-05-18T07:05:31.183Z,19.62
2023-05-18T07:07:58.467Z,20.09
2023-05-18T07:10:25.700Z,20.41
2023-05-18T07:12:52.929Z,19.76
2023-05-18T07:15:20.042Z,19.66
2023-05-18T07:17:47.298Z,19.07
2023-05-18T07:20:14.464Z,18.92
2023-05-18T07:22:41.487Z,18.91
2023-05-18T07:25:09.029Z,18.42
2023-05-18T07:27:36.077Z,18.65
2023-05-18T07:30:03.605Z,18.92
2023-05-18T07:32:30.788Z,18.79
2023-05-18T07:34:57.825Z,18.87
2023-05-18T07:37:24.876Z,18.07
2023-05-18T07:39:52.644Z,18.85
2023-05-18T07:42:19.684Z,18.94
2023-05-18T07:44:46.833Z,19.28
2023-05-18T07:47:13.925Z,19.53
2023-05-18T07:49:40.953Z,19.34
2023-05-18T07:52:08.600Z,19.22
2023-05-18T07:54:35.780Z,18.66
2023-05-18T07:57:04.355Z,17.97
2023-05-18T07:59:31.708Z,17.96
2023-05-18T08:02:00.240Z,18.26
2023-05-18T08:04:27.605Z,18.54
2023-05-18T08:06:55.120Z,18.50
2023-05-18T08:09:22.372Z,18.57
2023-05-18T08:11:51.146Z,18.61
2023-05-18T08:14:18.309Z,18.57
2023-05-18T08:16:45.874Z,19.12
2023-05-18T08:19:13.022Z,19.14
2023-05-18T08:21:40.768Z,18.55
2023-05-18T08:24:09.489Z,18.51
2023-05-18T08:26:36.684Z,18.76
2023-05-18T08:29:09.805Z,18.91
2023-05-18T08:31:38.289Z,18.67
2023-05-18T08:34:06.318Z,18.42
2023-05-18T08:36:35.537Z,18.52
2023-05-18T08:39:03.091Z,18.66
2023-05-18T08:41:32.423Z,18.71
2023-05-18T08:44:38.905Z,18.56
2023-05-18T08:47:10.474Z,18.61
2023-05-18T08:49:38.394Z,19.12
2023-05-18T08:52:08.254Z,19.33
2023-05-18T08:54:38.041Z,19.84
2023-05-18T08:57:09.019Z,19.78
2023-05-18T08:59:41.277Z,19.43
2023-05-18T09:02:09.008Z,19.79
2023-05-18T09:04:38.023Z,19.30
2023-05-18T09:07:06.983Z,19.47
2023-05-18T09:09:35.906Z,19.67
2023-05-18T09:12:04.202Z,19.60
2023-05-18T09:14:32.410Z,19.65
2023-05-18T09:16:59.482Z,20.05
2023-05-18T09:19:26.931Z,19.94
2023-05-18T09:21:54.074Z,20.12
2023-05-18T09:24:24.401Z,20.04
2023-05-18T09:26:51.966Z,20.52
2023-05-18T09:29:21.217Z,20.94
2023-05-18T09:31:48.908Z,20.73
2023-05-18T09:34:19.128Z,20.93
2023-05-18T09:36:57.861Z,20.49
2023-05-18T09:39:25.090Z,20.39
2023-05-18T09:41:59.525Z,20.19
2023-05-18T09:44:34.444Z,19.99
2023-05-18T09:47:02.210Z,19.75
2023-05-18T09:49:31.118Z,19.36
2023-05-18T09:52:00.264Z,19.29
2023-05-18T09:54:27.634Z,19.21
2023-05-18T09:57:08.867Z,19.33
2023-05-18T09:59:37.847Z,19.26
2023-05-18T10:02:06.248Z,19.29
2023-05-18T10:04:43.437Z,18.85
2023-05-18T10:07:15.848Z,19.04
2023-05-18T10:09:45.300Z,19.15
2023-05-18T10:12:14.094Z,19.04
2023-05-18T10:14:45.678Z,18.98
2023-05-18T10:17:16.264Z,19.10
2023-05-18T10:19:44.950Z,18.91
2023-05-18T10:22:21.078Z,19.08
2023-05-18T10:24:52.380Z,19.18
2023-05-18T10:27:28.667Z,19.26
2023-05-18T10:29:58.664Z,19.25
2023-05-18T10:32:26.376Z,19.08
2023-05-18T10:34:55.386Z,18.87
2023-05-18T10:37:31.059Z,19.00
2023-05-18T10:40:00.600Z,18.94
2023-05-18T10:42:30.900Z,19.01
2023-05-18T10:44:58.372Z,19.24
2023-05-18T10:47:26.532Z,19.02
2023-05-18T10:49:54.416Z,19.02
2023-05-18T10:52:21.877Z,19.38
2023-05-18T10:54:49.219Z,19.42
2023-05-18T10:57:20.138Z,19.13
2023-05-18T10:59:48.619Z,19.14
2023-05-18T11:02:18.778Z,19.14
2023-05-18T11:04:51.932Z,19.22
2023-05-18T11:07:21.812Z,19.19
2023-05-18T11:09:49.917Z,19.36
2023-05-18T11:12:20.882Z,19.47
2023-05-18T11:14:53.110Z,19.70
2023-05-18T11:17:25.693Z,19.60
2023-05-18T11:20:06.001Z,19.75
2023-05-18T11:22:47.844Z,20.00
2023-05-18T11:25:28.547Z,20.31
2023-05-18T11:28:02.297Z,20.03
2023-05-18T11:30:31.312Z,20.09
2023-05-18T11:33:15.347Z,20.05
2023-05-18T11:35:57.553Z,20.23
2023-05-18T11:38:47.980Z,20.81
2023-05-18T11:41:42.721Z,20.92
2023-05-18T11:44:12.935Z,21.11
2023-05-18T11:47:03.914Z,20.48
2023-05-18T11:49:54.035Z,21.33
2023-05-18T11:52:23.192Z,22.21
2023-05-18T11:54:54.342Z,21.69
2023-05-18T11:57:35.851Z,21.78
2023-05-18T12:00:10.766Z,21.20
2023-05-18T12:02:45.182Z,22.12
2023-05-18T12:05:13.968Z,22.35
2023-05-18T12:07:41.784Z,22.35
2023-05-18T12:10:11.610Z,21.46
2023-05-18T12:12:40.008Z,21.44
2023-05-18T12:15:09.448Z,20.70
2023-05-18T12:17:42.666Z,20.29
2023-05-18T12:20:11.985Z,19.99
2023-05-18T12:22:40.606Z,20.11
2023-05-18T12:25:08.502Z,20.04
2023-05-18T12:27:43.966Z,20.03
2023-05-18T12:30:22.141Z,19.78
2023-05-18T12:32:51.045Z,19.90
2023-05-18T12:35:25.547Z,19.97
2023-05-18T12:37:55.767Z,20.50
2023-05-18T12:40:23.574Z,21.12
2023-05-18T12:42:57.592Z,21.28
2023-05-18T12:45:28.262Z,21.51
2023-05-18T12:47:56.445Z,20.74
2023-05-18T12:50:28.534Z,21.13
2023-05-18T12:52:56.940Z,20.69
2023-05-18T12:55:28.391Z,20.46
2023-05-18T12:58:18.363Z,20.60
2023-05-18T13:00:47.325Z,20.66
2023-05-18T13:03:20.469Z,20.71
2023-05-18T13:06:05.129Z,20.42
2023-05-18T13:08:33.190Z,20.53
2023-05-18T13:11:12.688Z,20.72
2023-05-18T13:13:57.372Z,20.87
2023-05-18T13:16:24.549Z,21.04
2023-05-18T13:18:59.313Z,20.87
2023-05-18T13:21:26.972Z,20.51
2023-05-18T13:23:54.181Z,20.22
2023-05-18T13:26:23.125Z,21.02
2023-05-18T13:28:53.308Z,21.31
2023-05-18T13:31:21.162Z,21.14
2023-05-18T13:33:49.717Z,20.89
2023-05-18T13:36:17.873Z,20.92
2023-05-18T13:38:44.935Z,21.00
2023-05-18T13:41:14.999Z,21.16
2023-05-18T13:43:43.001Z,20.94
2023-05-18T13:46:10.321Z,21.35
2023-05-18T13:48:37.686Z,21.37
2023-05-18T13:51:04.898Z,21.59
2023-05-18T13:53:32.091Z,21.23
2023-05-18T13:55:59.136Z,21.09
2023-05-18T13:58:26.168Z,21.59
2023-05-18T14:00:54.692Z,21.78
2023-05-18T14:03:22.211Z,22.23
2023-05-18T14:05:49.755Z,21.76
2023-05-18T14:08:16.901Z,21.86
2023-05-18T14:10:43.976Z,22.03
2023-05-18T14:13:11.358Z,22.00
2023-05-18T14:15:38.543Z,22.29
2023-05-18T14:18:05.799Z,22.20
2023-05-18T14:20:34.074Z,22.21
2023-05-18T14:23:03.617Z,22.42
2023-05-18T14:25:31.558Z,22.69
2023-05-18T14:27:58.609Z,22.70
2023-05-18T14:30:25.713Z,22.80
2023-05-18T14:32:52.987Z,22.80
2023-05-18T14:35:20.154Z,23.35
2023-05-18T14:37:47.244Z,22.42
2023-05-18T14:40:14.402Z,22.78
2023-05-18T14:42:41.483Z,22.68
2023-05-18T14:45:09.116Z,22.59
2023-05-18T14:47:36.190Z,22.79
2023-05-18T14:50:03.447Z,22.91
2023-05-18T14:52:30.534Z,22.84
2023-05-18T14:54:57.584Z,22.91
2023-05-18T14:57:26.638Z,22.51
2023-05-18T14:59:54.111Z,21.85
2023-05-18T15:02:21.379Z,22.20
2023-05-18T15:04:48.612Z,21.45
2023-05-18T15:07:15.816Z,21.54
2023-05-18T15:09:42.984Z,20.73
2023-05-18T15:12:10.219Z,21.21
2023-05-18T15:14:38.246Z,21.43
2023-05-18T15:17:07.492Z,21.59
2023-05-18T15:19:34.696Z,21.82
2023-05-18T15:22:01.745Z,21.73
2023-05-18T15:24:28.911Z,20.61
2023-05-18T15:26:56.204Z,20.70
2023-05-18T15:29:23.632Z,20.95
2023-05-18T15:31:51.476Z,21.23
2023-05-18T15:34:18.671Z,20.83
2023-05-18T15:36:46.343Z,20.89
2023-05-18T15:39:13.538Z,21.02
2023-05-18T15:41:40.895Z,21.31
2023-05-18T15:44:07.916Z,21.56
2023-05-18T15:46:36.004Z,20.89
2023-05-18T15:49:04.131Z,20.68
2023-05-18T15:51:31.751Z,20.39
2023-05-18T15:53:58.867Z,20.57
2023-05-18T15:56:26.246Z,20.76
2023-05-18T15:58:53.431Z,20.59
2023-05-18T16:01:20.623Z,20.78
2023-05-18T16:03:47.817Z,20.98
2023-05-18T16:06:14.920Z,21.56
2023-05-18T16:08:41.942Z,21.33
2023-05-18T16:11:09.051Z,21.37
2023-05-18T16:13:36.135Z,21.38
2023-05-18T16:16:03.750Z,21.09
2023-05-18T16:18:30.883Z,20.98
2023-05-18T16:20:57.983Z,20.46
2023-05-18T16:23:24.977Z,20.57
2023-05-18T16:25:52.255Z,20.17
2023-05-18T16:28:19.420Z,19.95
2023-05-18T16:30:46.482Z,20.16
2023-05-18T16:33:13.502Z,19.66
2023-05-18T16:35:40.764Z,19.82
2023-05-18T16:38:07.815Z,19.84
2023-05-18T16:40:34.910Z,20.03
2023-05-18T16:43:02.011Z,20.40
2023-05-18T16:45:29.189Z,20.73
2023-05-18T16:47:57.155Z,20.25
2023-05-18T16:50:24.262Z,20.32
2023-05-18T16:52:51.381Z,20.63
2023-05-18T16:55:18.595Z,20.75
2023-05-18T16:57:45.764Z,20.71
2023-05-18T17:00:13.550Z,20.60
2023-05-18T17:02:40.789Z,20.42
2023-05-18T17:05:11.382Z,20.64
2023-05-18T17:07:38.730Z,20.37
2023-05-18T17:10:06.388Z,19.96
2023-05-18T17:12:33.882Z,19.84
2023-05-18T17:15:02.758Z,19.73
2023-05-18T17:17:30.253Z,19.92
2023-05-18T17:19:57.451Z,20.24
2023-05-18T17:22:24.623Z,20.40
2023-05-18T17:24:51.641Z,19.98
2023-05-18T17:27:18.713Z,20.12
2023-05-18T17:29:45.711Z,20.06
2023-05-18T17:32:12.702Z,20.12
2023-05-18T17:34:40.510Z,20.00
2023-05-18T17:37:07.561Z,19.57
2023-05-18T17:39:34.698Z,19.60
2023-05-18T17:42:01.944Z,19.76
2023-05-18T17:44:29.604Z,19.79
2023-05-18T17:46:56.912Z,19.61
2023-05-18T17:49:24.026Z,19.79
2023-05-18T17:51:52.455Z,19.91
2023-05-18T17:54:19.566Z,20.03
2023-05-18T17:56:46.824Z,19.77
2023-05-18T17:59:13.879Z,19.51
2023-05-18T18:01:41.053Z,19.16
2023-05-18T18:04:08.134Z,18.91
2023-05-18T18:06:38.413Z,19.25
2023-05-18T18:09:05.435Z,19.08
2023-05-18T18:11:32.574Z,18.82
2023-05-18T18:14:00.292Z,19.12
2023-05-18T18:16:27.415Z,19.19
2023-05-18T18:18:54.575Z,19.26
2023-05-18T18:21:21.709Z,19.47
2023-05-18T18:23:48.755Z,19.08
2023-05-18T18:26:15.898Z,19.16
2023-05-18T18:28:43.080Z,19.30
2023-05-18T18:31:10.094Z,19.36
2023-05-18T18:33:37.144Z,19.42
2023-05-18T18:36:05.879Z,18.87
2023-05-18T18:38:34.116Z,19.07
2023-05-18T18:41:04.460Z,19.27
2023-05-18T18:43:31.661Z,19.32
2023-05-18T18:45:59.736Z,19.09
2023-05-18T18:48:27.168Z,19.14
2023-05-18T18:50:54.394Z,19.29
2023-05-18T18:53:21.555Z,19.12
2023-05-18T18:55:48.698Z,19.14
2023-05-18T18:58:16.276Z,19.06
2023-05-18T19:00:43.812Z,18.80
2023-05-18T19:03:11.295Z,18.74
2023-05-18T19:05:39.265Z,18.85
2023-05-18T19:08:06.472Z,18.80
2023-05-18T19:10:34.448Z,18.76
2023-05-18T19:13:05.835Z,18.55
2023-05-18T19:15:36.917Z,18.17
2023-05-18T19:18:04.202Z,17.90
2023-05-18T19:20:31.375Z,18.12
2023-05-18T19:22:58.430Z,18.20
2023-05-18T19:25:26.431Z,17.88
2023-05-18T19:27:53.916Z,17.81
2023-05-18T19:30:22.034Z,17.41
2023-05-18T19:32:50.006Z,16.70
2023-05-18T19:35:19.776Z,16.40
2023-05-18T19:37:47.806Z,16.51
2023-05-18T19:40:15.430Z,17.07
2023-05-18T19:42:42.428Z,16.89
2023-05-18T19:45:09.604Z,17.41
2023-05-18T19:47:36.870Z,17.46
2023-05-18T19:50:04.733Z,17.50
2023-05-18T19:52:33.756Z,17.61
2023-05-18T19:55:02.456Z,17.55
2023-05-18T19:57:29.897Z,17.60
2023-05-18T19:59:57.983Z,17.60
2023-05-18T20:02:25.778Z,17.49
2023-05-18T20:04:53.834Z,17.51
2023-05-18T20:07:22.768Z,17.52
2023-05-18T20:09:53.136Z,17.51
2023-05-18T20:12:20.771Z,17.66
2023-05-18T20:14:48.615Z,17.61
2023-05-18T20:17:17.023Z,17.57
2023-05-18T20:19:49.941Z,17.67
2023-05-18T20:22:20.519Z,17.61
2023-05-18T20:24:49.089Z,17.66
2023-05-18T20:27:16.896Z,17.72
2023-05-18T20:29:44.017Z,17.75
2023-05-18T20:32:11.248Z,17.70
2023-05-18T20:34:38.457Z,17.67
2023-05-18T20:37:05.903Z,17.68
2023-05-18T20:39:33.105Z,17.50
2023-05-18T20:42:00.325Z,17.51
2023-05-18T20:44:28.936Z,17.49
2023-05-18T20:46:56.056Z,17.55
2023-05-18T20:49:25.070Z,17.57
2023-05-18T20:51:52.192Z,17.52
2023-05-18T20:54:21.460Z,17.46
2023-05-18T20:56:48.773Z,17.43
2023-05-18T20:59:16.363Z,17.38
2023-05-18T21:01:43.505Z,17.43
2023-05-18T21:04:12.734Z,17.22
2023-05-18T21:06:41.192Z,17.24
2023-05-18T21:09:08.539Z,17.23
2023-05-18T21:11:36.023Z,17.26
2023-05-18T21:14:03.140Z,17.24
2023-05-18T21:16:30.330Z,17.17
2023-05-18T21:18:57.547Z,17.18
2023-05-18T21:21:24.640Z,17.29
2023-05-18T21:23:52.038Z,17.30
2023-05-18T21:26:19.217Z,17.31
2023-05-18T21:28:46.222Z,17.16
2023-05-18T21:31:13.347Z,17.09
2023-05-18T21:33:42.099Z,17.09
2023-05-18T21:36:10.152Z,17.16
2023-05-18T21:38:37.284Z,17.09
2023-05-18T21:41:04.380Z,16.83
2023-05-18T21:43:31.419Z,16.80
2023-05-18T21:45:58.849Z,16.75
2023-05-18T21:48:25.979Z,16.75
2023-05-18T21:50:53.013Z,16.54
2023-05-18T21:53:20.036Z,16.57
2023-05-18T21:55:47.146Z,16.49
2023-05-18T21:58:14.149Z,16.46
2023-05-18T22:00:41.270Z,16.51
2023-05-18T22:03:08.434Z,16.51
2023-05-18T22:05:35.568Z,16.34
2023-05-18T22:08:02.638Z,16.36
2023-05-18T22:10:31.360Z,16.35
2023-05-18T22:12:58.602Z,16.35
2023-05-18T22:15:25.685Z,16.28
2023-05-18T22:17:54.156Z,16.12
2023-05-18T22:20:21.620Z,16.17
2023-05-18T22:22:48.835Z,16.08
2023-05-18T22:25:18.143Z,16.12
2023-05-18T22:27:45.847Z,16.04
2023-05-18T22:30:14.279Z,16.11
2023-05-18T22:32:41.378Z,15.91
2023-05-18T22:35:09.425Z,15.98
2023-05-18T22:37:36.821Z,16.01
2023-05-18T22:40:06.587Z,16.06
2023-05-18T22:42:33.886Z,16.16
2023-05-18T22:45:01.377Z,16.10
2023-05-18T22:47:29.733Z,16.15
2023-05-18T22:49:56.972Z,16.06
2023-05-18T22:52:24.030Z,16.09
2023-05-18T22:54:51.078Z,16.04
2023-05-18T22:57:18.121Z,15.98
2023-05-18T22:59:45.185Z,16.04
2023-05-18T23:02:12.454Z,16.11
2023-05-18T23:04:39.539Z,16.15
2023-05-18T23:07:06.822Z,16.04
2023-05-18T23:09:33.957Z,16.02
2023-05-18T23:12:01.292Z,15.97
2023-05-18T23:14:32.644Z,15.95
2023-05-18T23:17:00.580Z,16.04
2023-05-18T23:19:28.139Z,16.06
2023-05-18T23:21:56.116Z,16.09
2023-05-18T23:24:23.157Z,16.15
2023-05-18T23:26:50.229Z,16.13
2023-05-18T23:29:17.457Z,16.04
2023-05-18T23:31:44.537Z,16.07
2023-05-18T23:34:11.860Z,16.23
2023-05-18T23:36:42.736Z,16.52
2023-05-18T23:39:10.320Z,16.36
2023-05-18T23:41:37.915Z,16.04
2023-05-18T23:44:05.477Z,16.27
2023-05-18T23:46:32.781Z,16.28
2023-05-18T23:49:00.306Z,16.41
2023-05-18T23:51:32.173Z,16.21
2023-05-18T23:53:59.648Z,15.89
2023-05-18T23:56:26.944Z,16.00
2023-05-18T23:58:54.269Z,16.00
